sensor_id;sensor_type;location;lat;lon;timestamp;pressure;altitude;pressure_sealevel;temperature;humidity
73518;BME280;61766;60.318;25.044;2022-11-03T00:02:02;101397.16;;;9.93;48.52
73518;BME280;61766;60.318;25.044;2022-11-03T00:04:27;101394.20;;;9.88;48.65
73518;BME280;61766;60.318;25.044;2022-11-03T00:06:53;101393.08;;;9.62;48.63
73518;BME280;61766;60.318;25.044;2022-11-03T00:09:18;101395.22;;;9.96;48.76
73518;BME280;61766;60.318;25.044;2022-11-03T00:11:43;101393.20;;;9.99;48.39
73518;BME280;61766;60.318;25.044;2022-11-03T00:14:09;101394.71;;;9.60;48.67
73518;BME280;61766;60.318;25.044;2022-11-03T00:16:33;101398.75;;;9.75;48.41
73518;BME280;61766;60.318;25.044;2022-11-03T00:18:58;101398.22;;;9.40;48.47
73518;BME280;61766;60.318;25.044;2022-11-03T00:21:24;101396.67;;;9.93;47.97
73518;BME280;61766;60.318;25.044;2022-11-03T00:23:48;101401.11;;;9.83;48.09
73518;BME280;61766;60.318;25.044;2022-11-03T00:26:15;101402.28;;;10.35;47.33
73518;BME280;61766;60.318;25.044;2022-11-03T00:28:39;101398.68;;;10.52;46.95
73518;BME280;61766;60.318;25.044;2022-11-03T00:31:07;101398.64;;;10.51;46.48
73518;BME280;61766;60.318;25.044;2022-11-03T00:33:30;101398.37;;;10.92;46.15
73518;BME280;61766;60.318;25.044;2022-11-03T00:35:56;101393.50;;;10.52;46.14
73518;BME280;61766;60.318;25.044;2022-11-03T00:38:18;101396.38;;;10.43;46.00
73518;BME280;61766;60.318;25.044;2022-11-03T00:40:44;101395.36;;;11.00;45.86
73518;BME280;61766;60.318;25.044;2022-11-03T00:43:08;101394.48;;;11.07;45.85
73518;BME280;61766;60.318;25.044;2022-11-03T00:45:34;101394.59;;;11.00;45.25
73518;BME280;61766;60.318;25.044;2022-11-03T00:47:58;101396.03;;;11.19;44.73
73518;BME280;61766;60.318;25.044;2022-11-03T00:50:24;101394.86;;;11.04;44.89
73518;BME280;61766;60.318;25.044;2022-11-03T00:52:49;101395.39;;;11.18;44.64
73518;BME280;61766;60.318;25.044;2022-11-03T00:55:14;101398.77;;;11.30;44.40
73518;BME280;61766;60.318;25.044;2022-11-03T00:57:39;101400.73;;;11.07;44.67
73518;BME280;61766;60.318;25.044;2022-11-03T01:00:06;101396.88;;;11.23;44.96
73518;BME280;61766;60.318;25.044;2022-11-03T01:02:35;101398.39;;;10.77;45.38
73518;BME280;61766;60.318;25.044;2022-11-03T01:04:54;101395.12;;;11.04;44.85
73518;BME280;61766;60.318;25.044;2022-11-03T01:07:19;101393.97;;;11.27;44.48
73518;BME280;61766;60.318;25.044;2022-11-03T01:09:44;101395.01;;;11.49;44.44
73518;BME280;61766;60.318;25.044;2022-11-03T01:12:11;101396.84;;;11.32;44.48
73518;BME280;61766;60.318;25.044;2022-11-03T01:14:37;101394.78;;;11.15;44.71
73518;BME280;61766;60.318;25.044;2022-11-03T01:17:00;101394.40;;;11.23;44.59
73518;BME280;61766;60.318;25.044;2022-11-03T01:19:24;101396.09;;;11.00;44.90
73518;BME280;61766;60.318;25.044;2022-11-03T01:21:49;101398.17;;;11.07;44.92
73518;BME280;61766;60.318;25.044;2022-11-03T01:24:14;101398.92;;;10.47;46.23
73518;BME280;61766;60.318;25.044;2022-11-03T01:26:39;101394.95;;;11.10;45.56
73518;BME280;61766;60.318;25.044;2022-11-03T01:29:04;101394.92;;;10.68;46.29
73518;BME280;61766;60.318;25.044;2022-11-03T01:31:30;101393.95;;;10.46;46.01
73518;BME280;61766;60.318;25.044;2022-11-03T01:33:55;101394.64;;;10.44;46.51
73518;BME280;61766;60.318;25.044;2022-11-03T01:36:20;101392.90;;;10.42;47.00
73518;BME280;61766;60.318;25.044;2022-11-03T01:38:44;101392.66;;;10.61;46.69
73518;BME280;61766;60.318;25.044;2022-11-03T01:41:12;101392.75;;;10.59;46.78
73518;BME280;61766;60.318;25.044;2022-11-03T01:43:42;101391.85;;;10.46;46.86
73518;BME280;61766;60.318;25.044;2022-11-03T01:46:04;101391.51;;;10.63;46.62
73518;BME280;61766;60.318;25.044;2022-11-03T01:48:25;101394.47;;;10.24;46.90
73518;BME280;61766;60.318;25.044;2022-11-03T01:50:51;101394.56;;;10.32;47.24
73518;BME280;61766;60.318;25.044;2022-11-03T01:53:15;101393.00;;;10.54;46.92
73518;BME280;61766;60.318;25.044;2022-11-03T01:55:40;101392.19;;;10.92;46.34
73518;BME280;61766;60.318;25.044;2022-11-03T01:58:07;101396.45;;;10.94;46.10
73518;BME280;61766;60.318;25.044;2022-11-03T02:00:30;101398.16;;;10.86;46.38
73518;BME280;61766;60.318;25.044;2022-11-03T02:02:55;101394.36;;;10.99;46.12
73518;BME280;61766;60.318;25.044;2022-11-03T02:05:22;101398.86;;;10.55;46.88
73518;BME280;61766;60.318;25.044;2022-11-03T02:07:48;101397.52;;;10.64;46.28
73518;BME280;61766;60.318;25.044;2022-11-03T02:10:10;101395.83;;;11.17;45.86
73518;BME280;61766;60.318;25.044;2022-11-03T02:12:36;101396.11;;;10.98;45.34
73518;BME280;61766;60.318;25.044;2022-11-03T02:15:04;101395.45;;;11.41;45.03
73518;BME280;61766;60.318;25.044;2022-11-03T02:17:27;101394.99;;;11.13;45.05
73518;BME280;61766;60.318;25.044;2022-11-03T02:19:55;101396.87;;;11.28;44.74
73518;BME280;61766;60.318;25.044;2022-11-03T02:24:46;101396.31;;;11.14;45.01
73518;BME280;61766;60.318;25.044;2022-11-03T02:27:05;101393.72;;;11.45;44.40
73518;BME280;61766;60.318;25.044;2022-11-03T02:29:30;101394.56;;;11.41;44.10
73518;BME280;61766;60.318;25.044;2022-11-03T02:32:00;101393.11;;;11.51;43.92
73518;BME280;61766;60.318;25.044;2022-11-03T02:34:25;101394.95;;;11.68;43.59
73518;BME280;61766;60.318;25.044;2022-11-03T02:36:50;101398.71;;;11.62;43.48
73518;BME280;61766;60.318;25.044;2022-11-03T02:39:14;101396.98;;;11.71;43.47
73518;BME280;61766;60.318;25.044;2022-11-03T02:41:37;101399.17;;;11.86;43.20
73518;BME280;61766;60.318;25.044;2022-11-03T02:44:02;101399.37;;;11.78;42.98
73518;BME280;61766;60.318;25.044;2022-11-03T02:46:27;101396.96;;;11.75;42.95
73518;BME280;61766;60.318;25.044;2022-11-03T02:48:51;101397.80;;;11.81;42.83
73518;BME280;61766;60.318;25.044;2022-11-03T02:51:16;101394.39;;;11.86;42.75
73518;BME280;61766;60.318;25.044;2022-11-03T02:53:44;101395.48;;;11.86;42.66
73518;BME280;61766;60.318;25.044;2022-11-03T02:56:10;101396.06;;;11.72;42.86
73518;BME280;61766;60.318;25.044;2022-11-03T02:58:36;101398.15;;;11.90;42.63
73518;BME280;61766;60.318;25.044;2022-11-03T03:01:00;101397.71;;;12.20;42.48
73518;BME280;61766;60.318;25.044;2022-11-03T03:03:25;101399.66;;;11.93;42.48
73518;BME280;61766;60.318;25.044;2022-11-03T03:05:48;101403.86;;;11.56;42.65
73518;BME280;61766;60.318;25.044;2022-11-03T03:08:12;101401.34;;;11.89;42.84
73518;BME280;61766;60.318;25.044;2022-11-03T03:10:39;101401.20;;;11.89;42.88
73518;BME280;61766;60.318;25.044;2022-11-03T03:13:02;101400.70;;;11.96;42.81
73518;BME280;61766;60.318;25.044;2022-11-03T03:15:34;101400.62;;;11.98;42.76
73518;BME280;61766;60.318;25.044;2022-11-03T03:17:53;101402.23;;;12.16;42.54
73518;BME280;61766;60.318;25.044;2022-11-03T03:20:21;101401.27;;;12.23;42.41
73518;BME280;61766;60.318;25.044;2022-11-03T03:22:44;101401.59;;;11.98;42.37
73518;BME280;61766;60.318;25.044;2022-11-03T03:25:10;101400.88;;;12.19;42.34
73518;BME280;61766;60.318;25.044;2022-11-03T03:27:33;101401.45;;;11.76;42.35
73518;BME280;61766;60.318;25.044;2022-11-03T03:30:02;101401.73;;;12.04;42.25
73518;BME280;61766;60.318;25.044;2022-11-03T03:32:23;101400.44;;;12.30;42.30
73518;BME280;61766;60.318;25.044;2022-11-03T03:34:48;101402.71;;;12.25;42.24
73518;BME280;61766;60.318;25.044;2022-11-03T03:37:13;101403.68;;;11.98;42.37
73518;BME280;61766;60.318;25.044;2022-11-03T03:39:39;101405.43;;;12.20;42.66
73518;BME280;61766;60.318;25.044;2022-11-03T03:42:03;101399.24;;;11.70;43.10
73518;BME280;61766;60.318;25.044;2022-11-03T03:44:28;101400.79;;;11.68;43.29
73518;BME280;61766;60.318;25.044;2022-11-03T03:46:58;101400.43;;;11.70;43.19
73518;BME280;61766;60.318;25.044;2022-11-03T03:49:18;101403.93;;;11.67;42.93
73518;BME280;61766;60.318;25.044;2022-11-03T03:51:43;101402.11;;;11.39;43.64
73518;BME280;61766;60.318;25.044;2022-11-03T03:54:07;101402.28;;;11.26;43.54
73518;BME280;61766;60.318;25.044;2022-11-03T03:56:37;101403.95;;;11.53;43.36
73518;BME280;61766;60.318;25.044;2022-11-03T03:58:57;101405.47;;;11.45;43.60
73518;BME280;61766;60.318;25.044;2022-11-03T04:01:22;101406.04;;;11.63;43.67
73518;BME280;61766;60.318;25.044;2022-11-03T04:03:48;101409.26;;;11.47;44.00
73518;BME280;61766;60.318;25.044;2022-11-03T04:06:13;101405.97;;;11.60;43.76
73518;BME280;61766;60.318;25.044;2022-11-03T04:08:38;101409.18;;;11.15;44.01
73518;BME280;61766;60.318;25.044;2022-11-03T04:11:04;101408.74;;;11.49;44.03
73518;BME280;61766;60.318;25.044;2022-11-03T04:13:28;101406.88;;;11.65;43.72
73518;BME280;61766;60.318;25.044;2022-11-03T04:15:53;101410.81;;;11.42;43.96
73518;BME280;61766;60.318;25.044;2022-11-03T04:18:20;101415.63;;;10.60;45.27
73518;BME280;61766;60.318;25.044;2022-11-03T04:20:43;101413.50;;;10.77;45.14
73518;BME280;61766;60.318;25.044;2022-11-03T04:23:08;101413.57;;;11.07;44.71
73518;BME280;61766;60.318;25.044;2022-11-03T04:25:34;101414.75;;;10.97;44.46
73518;BME280;61766;60.318;25.044;2022-11-03T04:27:58;101415.25;;;11.20;44.31
73518;BME280;61766;60.318;25.044;2022-11-03T04:30:24;101416.36;;;11.09;44.49
73518;BME280;61766;60.318;25.044;2022-11-03T04:32:50;101417.71;;;11.09;44.47
73518;BME280;61766;60.318;25.044;2022-11-03T04:35:15;101419.22;;;10.69;45.30
73518;BME280;61766;60.318;25.044;2022-11-03T04:37:39;101423.52;;;10.30;45.74
73518;BME280;61766;60.318;25.044;2022-11-03T04:40:12;101423.65;;;10.77;45.14
73518;BME280;61766;60.318;25.044;2022-11-03T04:42:30;101423.68;;;11.24;44.62
73518;BME280;61766;60.318;25.044;2022-11-03T04:44:59;101425.37;;;10.81;44.99
73518;BME280;61766;60.318;25.044;2022-11-03T04:47:19;101424.57;;;11.21;44.81
73518;BME280;61766;60.318;25.044;2022-11-03T04:49:47;101425.60;;;10.58;45.51
73518;BME280;61766;60.318;25.044;2022-11-03T04:52:12;101424.87;;;10.52;45.99
73518;BME280;61766;60.318;25.044;2022-11-03T04:54:34;101429.46;;;10.42;45.99
73518;BME280;61766;60.318;25.044;2022-11-03T04:57:04;101429.45;;;10.27;46.56
73518;BME280;61766;60.318;25.044;2022-11-03T04:59:25;101429.14;;;10.36;46.45
73518;BME280;61766;60.318;25.044;2022-11-03T05:01:50;101429.20;;;10.48;46.21
73518;BME280;61766;60.318;25.044;2022-11-03T05:04:16;101431.68;;;10.34;46.54
73518;BME280;61766;60.318;25.044;2022-11-03T05:06:40;101429.78;;;10.09;46.98
73518;BME280;61766;60.318;25.044;2022-11-03T05:09:11;101432.50;;;10.06;46.91
73518;BME280;61766;60.318;25.044;2022-11-03T05:11:34;101436.99;;;10.07;47.04
73518;BME280;61766;60.318;25.044;2022-11-03T05:13:58;101439.60;;;10.53;46.29
73518;BME280;61766;60.318;25.044;2022-11-03T05:16:21;101442.91;;;10.45;46.02
73518;BME280;61766;60.318;25.044;2022-11-03T05:18:48;101440.92;;;9.84;46.67
73518;BME280;61766;60.318;25.044;2022-11-03T05:21:13;101436.92;;;10.09;46.94
73518;BME280;61766;60.318;25.044;2022-11-03T05:23:38;101438.91;;;10.54;46.27
73518;BME280;61766;60.318;25.044;2022-11-03T05:26:02;101440.50;;;10.60;45.78
73518;BME280;61766;60.318;25.044;2022-11-03T05:28:28;101442.19;;;10.32;46.73
73518;BME280;61766;60.318;25.044;2022-11-03T05:30:52;101443.72;;;9.58;48.35
73518;BME280;61766;60.318;25.044;2022-11-03T05:33:25;101440.66;;;9.64;48.34
73518;BME280;61766;60.318;25.044;2022-11-03T05:35:41;101445.85;;;9.82;47.72
73518;BME280;61766;60.318;25.044;2022-11-03T05:38:10;101446.58;;;9.49;48.47
73518;BME280;61766;60.318;25.044;2022-11-03T05:40:32;101450.39;;;9.83;47.64
73518;BME280;61766;60.318;25.044;2022-11-03T05:42:58;101450.02;;;10.17;47.03
73518;BME280;61766;60.318;25.044;2022-11-03T05:45:25;101447.76;;;9.55;48.25
73518;BME280;61766;60.318;25.044;2022-11-03T05:47:47;101449.63;;;10.36;46.93
73518;BME280;61766;60.318;25.044;2022-11-03T05:50:17;101448.95;;;10.36;46.85
73518;BME280;61766;60.318;25.044;2022-11-03T05:52:37;101450.28;;;10.24;47.00
73518;BME280;61766;60.318;25.044;2022-11-03T05:55:04;101446.19;;;10.16;46.88
73518;BME280;61766;60.318;25.044;2022-11-03T05:57:29;101447.84;;;10.08;47.47
73518;BME280;61766;60.318;25.044;2022-11-03T05:59:53;101449.76;;;10.09;46.92
73518;BME280;61766;60.318;25.044;2022-11-03T06:02:32;101451.13;;;9.98;47.57
73518;BME280;61766;60.318;25.044;2022-11-03T06:04:43;101453.03;;;10.22;47.11
73518;BME280;61766;60.318;25.044;2022-11-03T06:07:15;101455.43;;;10.54;46.54
73518;BME280;61766;60.318;25.044;2022-11-03T06:09:33;101460.69;;;10.66;46.27
73518;BME280;61766;60.318;25.044;2022-11-03T06:12:00;101465.05;;;10.78;46.17
73518;BME280;61766;60.318;25.044;2022-11-03T06:14:25;101468.28;;;10.80;45.97
73518;BME280;61766;60.318;25.044;2022-11-03T06:16:50;101469.42;;;10.55;45.98
73518;BME280;61766;60.318;25.044;2022-11-03T06:19:21;101472.52;;;10.26;46.86
73518;BME280;61766;60.318;25.044;2022-11-03T06:21:38;101472.84;;;10.52;46.51
73518;BME280;61766;60.318;25.044;2022-11-03T06:24:06;101473.69;;;9.70;47.98
73518;BME280;61766;60.318;25.044;2022-11-03T06:26:30;101479.26;;;9.62;48.64
73518;BME280;61766;60.318;25.044;2022-11-03T06:28:54;101485.34;;;9.46;49.73
73518;BME280;61766;60.318;25.044;2022-11-03T06:31:23;101481.43;;;9.66;49.08
73518;BME280;61766;60.318;25.044;2022-11-03T06:33:45;101481.37;;;9.64;48.68
73518;BME280;61766;60.318;25.044;2022-11-03T06:36:14;101486.52;;;10.22;47.67
73518;BME280;61766;60.318;25.044;2022-11-03T06:38:36;101488.15;;;9.95;48.82
73518;BME280;61766;60.318;25.044;2022-11-03T06:41:01;101488.27;;;9.72;49.43
73518;BME280;61766;60.318;25.044;2022-11-03T06:43:32;101491.50;;;9.85;49.38
73518;BME280;61766;60.318;25.044;2022-11-03T06:45:53;101493.84;;;9.47;49.83
73518;BME280;61766;60.318;25.044;2022-11-03T06:48:22;101496.12;;;9.62;49.68
73518;BME280;61766;60.318;25.044;2022-11-03T06:50:41;101493.81;;;9.17;50.60
73518;BME280;61766;60.318;25.044;2022-11-03T06:53:08;101492.98;;;9.65;49.71
73518;BME280;61766;60.318;25.044;2022-11-03T06:55:33;101493.74;;;9.57;50.17
73518;BME280;61766;60.318;25.044;2022-11-03T06:57:59;101498.79;;;9.20;50.20
73518;BME280;61766;60.318;25.044;2022-11-03T07:00:24;101499.47;;;8.80;51.10
73518;BME280;61766;60.318;25.044;2022-11-03T07:02:54;101501.74;;;9.28;50.14
73518;BME280;61766;60.318;25.044;2022-11-03T07:05:19;101500.11;;;9.59;49.62
73518;BME280;61766;60.318;25.044;2022-11-03T07:07:37;101497.48;;;9.32;49.35
73518;BME280;61766;60.318;25.044;2022-11-03T07:10:03;101502.09;;;8.91;49.87
73518;BME280;61766;60.318;25.044;2022-11-03T07:12:28;101502.36;;;9.22;49.96
73518;BME280;61766;60.318;25.044;2022-11-03T07:14:53;101507.88;;;9.23;50.45
73518;BME280;61766;60.318;25.044;2022-11-03T07:17:20;101504.60;;;9.42;49.25
73518;BME280;61766;60.318;25.044;2022-11-03T07:19:44;101503.25;;;9.77;48.60
73518;BME280;61766;60.318;25.044;2022-11-03T07:22:13;101506.87;;;10.15;47.89
73518;BME280;61766;60.318;25.044;2022-11-03T07:24:37;101508.87;;;10.26;47.55
73518;BME280;61766;60.318;25.044;2022-11-03T07:27:00;101507.62;;;9.89;48.34
73518;BME280;61766;60.318;25.044;2022-11-03T07:29:25;101511.37;;;9.61;48.83
73518;BME280;61766;60.318;25.044;2022-11-03T07:31:49;101512.56;;;9.28;49.19
73518;BME280;61766;60.318;25.044;2022-11-03T07:34:19;101513.42;;;9.28;50.25
73518;BME280;61766;60.318;25.044;2022-11-03T07:36:38;101510.22;;;8.78;50.77
73518;BME280;61766;60.318;25.044;2022-11-03T07:39:05;101508.88;;;9.73;49.61
73518;BME280;61766;60.318;25.044;2022-11-03T07:41:32;101507.17;;;9.74;49.58
73518;BME280;61766;60.318;25.044;2022-11-03T07:43:56;101512.52;;;9.25;49.99
73518;BME280;61766;60.318;25.044;2022-11-03T07:46:21;101516.86;;;9.28;50.38
73518;BME280;61766;60.318;25.044;2022-11-03T07:48:46;101517.54;;;9.20;50.22
73518;BME280;61766;60.318;25.044;2022-11-03T07:51:18;101521.12;;;8.77;51.13
73518;BME280;61766;60.318;25.044;2022-11-03T07:53:40;101522.45;;;9.22;50.36
73518;BME280;61766;60.318;25.044;2022-11-03T07:56:01;101517.01;;;9.57;49.26
73518;BME280;61766;60.318;25.044;2022-11-03T07:58:33;101515.68;;;9.88;49.01
73518;BME280;61766;60.318;25.044;2022-11-03T08:00:54;101515.37;;;9.55;49.00
73518;BME280;61766;60.318;25.044;2022-11-03T08:03:25;101516.00;;;9.50;49.77
73518;BME280;61766;60.318;25.044;2022-11-03T08:05:41;101516.01;;;8.70;51.51
73518;BME280;61766;60.318;25.044;2022-11-03T08:08:06;101515.08;;;9.53;50.27
73518;BME280;61766;60.318;25.044;2022-11-03T08:10:31;101518.85;;;9.33;50.27
73518;BME280;61766;60.318;25.044;2022-11-03T08:12:56;101520.68;;;9.21;50.79
73518;BME280;61766;60.318;25.044;2022-11-03T08:15:21;101519.78;;;9.25;50.51
73518;BME280;61766;60.318;25.044;2022-11-03T08:17:46;101521.72;;;9.16;50.58
73518;BME280;61766;60.318;25.044;2022-11-03T08:20:11;101520.39;;;8.98;50.74
73518;BME280;61766;60.318;25.044;2022-11-03T08:22:36;101526.75;;;8.98;51.19
73518;BME280;61766;60.318;25.044;2022-11-03T08:25:01;101521.40;;;8.15;52.74
73518;BME280;61766;60.318;25.044;2022-11-03T08:27:27;101521.54;;;8.41;51.94
73518;BME280;61766;60.318;25.044;2022-11-03T08:29:52;101524.91;;;9.41;50.19
73518;BME280;61766;60.318;25.044;2022-11-03T08:32:17;101521.88;;;9.71;49.61
73518;BME280;61766;60.318;25.044;2022-11-03T08:34:42;101518.93;;;9.73;49.10
73518;BME280;61766;60.318;25.044;2022-11-03T08:37:07;101520.92;;;9.53;48.37
73518;BME280;61766;60.318;25.044;2022-11-03T08:39:32;101521.95;;;9.24;48.59
73518;BME280;61766;60.318;25.044;2022-11-03T08:41:57;101521.36;;;9.52;47.85
73518;BME280;61766;60.318;25.044;2022-11-03T08:44:22;101525.92;;;9.60;48.24
73518;BME280;61766;60.318;25.044;2022-11-03T08:46:47;101524.96;;;10.13;47.15
73518;BME280;61766;60.318;25.044;2022-11-03T08:49:12;101526.84;;;9.90;46.95
73518;BME280;61766;60.318;25.044;2022-11-03T08:51:37;101533.68;;;8.95;48.83
73518;BME280;61766;60.318;25.044;2022-11-03T08:54:03;101531.35;;;9.31;48.56
73518;BME280;61766;60.318;25.044;2022-11-03T08:56:28;101531.33;;;9.63;47.97
73518;BME280;61766;60.318;25.044;2022-11-03T08:58:53;101530.13;;;9.55;47.92
73518;BME280;61766;60.318;25.044;2022-11-03T09:01:20;101534.22;;;9.28;47.75
73518;BME280;61766;60.318;25.044;2022-11-03T09:03:44;101527.24;;;8.60;49.54
73518;BME280;61766;60.318;25.044;2022-11-03T09:06:10;101525.82;;;9.10;48.51
73518;BME280;61766;60.318;25.044;2022-11-03T09:08:35;101523.60;;;9.04;48.47
73518;BME280;61766;60.318;25.044;2022-11-03T09:11:01;101522.49;;;7.83;50.95
73518;BME280;61766;60.318;25.044;2022-11-03T09:13:25;101518.74;;;8.00;51.04
73518;BME280;61766;60.318;25.044;2022-11-03T09:15:51;101518.08;;;8.40;50.88
73518;BME280;61766;60.318;25.044;2022-11-03T09:18:16;101519.76;;;8.11;50.41
73518;BME280;61766;60.318;25.044;2022-11-03T09:20:41;101517.53;;;8.85;50.18
73518;BME280;61766;60.318;25.044;2022-11-03T09:23:06;101519.40;;;8.70;49.72
73518;BME280;61766;60.318;25.044;2022-11-03T09:25:32;101516.62;;;8.62;49.84
73518;BME280;61766;60.318;25.044;2022-11-03T09:27:57;101521.20;;;9.11;49.00
73518;BME280;61766;60.318;25.044;2022-11-03T09:30:22;101524.67;;;8.65;49.64
73518;BME280;61766;60.318;25.044;2022-11-03T09:32:47;101530.62;;;8.40;49.98
73518;BME280;61766;60.318;25.044;2022-11-03T09:35:12;101532.46;;;8.28;50.42
73518;BME280;61766;60.318;25.044;2022-11-03T09:37:37;101527.83;;;8.68;50.39
73518;BME280;61766;60.318;25.044;2022-11-03T09:40:02;101529.71;;;8.78;49.46
73518;BME280;61766;60.318;25.044;2022-11-03T09:42:27;101532.37;;;8.41;50.22
73518;BME280;61766;60.318;25.044;2022-11-03T09:44:52;101533.98;;;8.44;50.36
73518;BME280;61766;60.318;25.044;2022-11-03T09:47:21;101531.24;;;8.91;48.73
73518;BME280;61766;60.318;25.044;2022-11-03T09:49:42;101531.44;;;8.86;48.71
73518;BME280;61766;60.318;25.044;2022-11-03T09:52:13;101529.59;;;8.80;49.67
73518;BME280;61766;60.318;25.044;2022-11-03T09:54:33;101532.98;;;8.85;49.57
73518;BME280;61766;60.318;25.044;2022-11-03T09:57:04;101537.01;;;8.39;50.13
73518;BME280;61766;60.318;25.044;2022-11-03T09:59:24;101535.17;;;8.48;50.59
73518;BME280;61766;60.318;25.044;2022-11-03T10:01:50;101538.38;;;8.19;50.70
73518;BME280;61766;60.318;25.044;2022-11-03T10:04:14;101536.60;;;7.93;51.92
73518;BME280;61766;60.318;25.044;2022-11-03T10:06:39;101531.27;;;8.58;50.69
73518;BME280;61766;60.318;25.044;2022-11-03T10:09:05;101528.87;;;8.26;52.08
73518;BME280;61766;60.318;25.044;2022-11-03T10:11:30;101527.81;;;8.55;51.09
73518;BME280;61766;60.318;25.044;2022-11-03T10:13:55;101530.32;;;8.07;51.15
73518;BME280;61766;60.318;25.044;2022-11-03T10:16:22;101530.78;;;9.32;49.00
73518;BME280;61766;60.318;25.044;2022-11-03T10:18:46;101532.99;;;8.89;50.03
73518;BME280;61766;60.318;25.044;2022-11-03T10:21:15;101534.68;;;8.38;51.47
73518;BME280;61766;60.318;25.044;2022-11-03T10:23:36;101536.88;;;8.63;51.14
73518;BME280;61766;60.318;25.044;2022-11-03T10:26:08;101538.91;;;8.94;50.43
73518;BME280;61766;60.318;25.044;2022-11-03T10:28:27;101542.14;;;8.44;51.48
73518;BME280;61766;60.318;25.044;2022-11-03T10:30:55;101542.47;;;8.68;50.66
73518;BME280;61766;60.318;25.044;2022-11-03T10:33:25;101540.62;;;8.37;51.44
73518;BME280;61766;60.318;25.044;2022-11-03T10:35:43;101545.08;;;8.75;50.41
73518;BME280;61766;60.318;25.044;2022-11-03T10:40:35;101543.08;;;7.93;51.06
73518;BME280;61766;60.318;25.044;2022-11-03T10:42:58;101538.64;;;8.13;51.90
73518;BME280;61766;60.318;25.044;2022-11-03T10:45:24;101543.97;;;8.81;50.23
73518;BME280;61766;60.318;25.044;2022-11-03T10:48:00;101545.96;;;9.24;49.04
73518;BME280;61766;60.318;25.044;2022-11-03T10:50:21;101543.26;;;9.58;47.48
73518;BME280;61766;60.318;25.044;2022-11-03T10:52:39;101546.46;;;9.32;47.93
73518;BME280;61766;60.318;25.044;2022-11-03T10:55:05;101545.22;;;9.70;47.61
73518;BME280;61766;60.318;25.044;2022-11-03T10:57:31;101549.67;;;9.39;48.08
73518;BME280;61766;60.318;25.044;2022-11-03T10:59:55;101548.00;;;8.60;50.07
73518;BME280;61766;60.318;25.044;2022-11-03T11:02:21;101549.56;;;8.38;50.55
73518;BME280;61766;60.318;25.044;2022-11-03T11:04:46;101549.65;;;9.26;48.81
73518;BME280;61766;60.318;25.044;2022-11-03T11:07:18;101547.82;;;9.47;47.97
73518;BME280;61766;60.318;25.044;2022-11-03T11:09:35;101545.24;;;9.54;48.03
73518;BME280;61766;60.318;25.044;2022-11-03T11:12:03;101546.41;;;9.45;48.04
73518;BME280;61766;60.318;25.044;2022-11-03T11:14:33;101544.45;;;9.31;48.06
73518;BME280;61766;60.318;25.044;2022-11-03T11:16:52;101545.92;;;9.42;48.08
73518;BME280;61766;60.318;25.044;2022-11-03T11:19:17;101543.11;;;8.88;48.86
73518;BME280;61766;60.318;25.044;2022-11-03T11:21:59;101544.93;;;9.35;48.47
73518;BME280;61766;60.318;25.044;2022-11-03T11:24:08;101543.78;;;9.50;48.12
73518;BME280;61766;60.318;25.044;2022-11-03T11:26:33;101538.61;;;10.16;46.90
73518;BME280;61766;60.318;25.044;2022-11-03T11:31:29;101554.45;;;8.78;48.88
73518;BME280;61766;60.318;25.044;2022-11-03T11:33:48;101549.87;;;7.98;50.44
73518;BME280;61766;60.318;25.044;2022-11-03T11:36:22;101549.24;;;9.08;49.16
73518;BME280;61766;60.318;25.044;2022-11-03T11:41:03;101546.28;;;9.34;48.46
73518;BME280;61766;60.318;25.044;2022-11-03T11:43:28;101544.52;;;9.85;47.32
73518;BME280;61766;60.318;25.044;2022-11-03T11:48:19;101551.03;;;9.28;48.10
73518;BME280;61766;60.318;25.044;2022-11-03T11:50:44;101552.97;;;9.37;47.90
73518;BME280;61766;60.318;25.044;2022-11-03T11:53:12;101556.19;;;9.29;48.20
73518;BME280;61766;60.318;25.044;2022-11-03T11:55:40;101556.41;;;9.40;47.47
73518;BME280;61766;60.318;25.044;2022-11-03T11:58:01;101555.65;;;8.97;48.05
73518;BME280;61766;60.318;25.044;2022-11-03T12:00:28;101560.00;;;9.21;47.86
73518;BME280;61766;60.318;25.044;2022-11-03T12:02:51;101562.46;;;9.07;47.89
73518;BME280;61766;60.318;25.044;2022-11-03T12:05:19;101562.11;;;8.99;47.86
73518;BME280;61766;60.318;25.044;2022-11-03T12:07:41;101563.40;;;9.49;47.13
73518;BME280;61766;60.318;25.044;2022-11-03T12:10:07;101560.28;;;9.37;47.56
73518;BME280;61766;60.318;25.044;2022-11-03T12:12:32;101563.82;;;9.18;47.81
73518;BME280;61766;60.318;25.044;2022-11-03T12:14:56;101560.15;;;9.60;47.13
73518;BME280;61766;60.318;25.044;2022-11-03T12:17:31;101559.23;;;9.88;46.32
73518;BME280;61766;60.318;25.044;2022-11-03T12:19:48;101564.44;;;9.14;47.13
73518;BME280;61766;60.318;25.044;2022-11-03T12:24:45;101560.51;;;8.71;46.97
73518;BME280;61766;60.318;25.044;2022-11-03T12:27:19;101559.74;;;9.42;46.35
73518;BME280;61766;60.318;25.044;2022-11-03T12:29:27;101555.40;;;9.79;45.99
73518;BME280;61766;60.318;25.044;2022-11-03T12:31:52;101555.48;;;10.14;45.35
73518;BME280;61766;60.318;25.044;2022-11-03T12:34:18;101564.72;;;9.23;46.16
73518;BME280;61766;60.318;25.044;2022-11-03T12:36:44;101563.35;;;9.73;45.16
73518;BME280;61766;60.318;25.044;2022-11-03T12:39:09;101569.26;;;9.75;46.18
73518;BME280;61766;60.318;25.044;2022-11-03T12:41:34;101564.84;;;9.60;45.93
73518;BME280;61766;60.318;25.044;2022-11-03T12:43:59;101563.77;;;9.42;46.04
73518;BME280;61766;60.318;25.044;2022-11-03T12:46:24;101564.58;;;9.82;45.39
73518;BME280;61766;60.318;25.044;2022-11-03T12:48:50;101567.66;;;9.67;45.71